Freehold, NY (12431)

4:26 AM EDT on November 01, 2014 (GMT -0400)
KNYFREEH2 | Change Station
CLOSE
Current Station
Personal Weather Station
Location: Freehold, NY
Elevation: 587 ft
Nearby Weather Stations

Elev 587 ft 42.36 °N, 74.04 °W | Updated 5 minutes ago

Overcast
Overcast
41.4 °F
Feels Like 41 °F
N
0.0
Wind Variable Wind from NE
Gusts 2.0 mph

Today
High -- | Low -- °F
--% Chance of Precip.
Yesterday
High -- | Low -- °F
Precip. -- in
7:29 AM 5:49 PM
Waxing Gibbous, 64% visible
Pressure 29.95 in
Visibility 10.0 miles
Clouds Scattered Clouds 5500 ft
Mostly Cloudy 8500 ft
Windchill 41 °F
Dew Point 39 °F
Humidity 91%
Rainfall 0.00 in
Snow Depth Not available.
UV 0 out of 12
Pollen .10 out of 12
Air Quality Not available.
Flu Activity Not available.
METAR KALB 010751Z 01008KT 10SM SCT055 BKN085 06/M01 A2995 RMK AO2 SLP142 T00561006

More Conditions Fewer Conditions

Pressure 29.95 in
Visibility 10.0 miles
Clouds Scattered Clouds 5500 ft
Mostly Cloudy 8500 ft
Windchill 41 °F
Dew Point 39 °F
Humidity 91%
Rainfall 0.00 in
Snow Depth Not available.
UV 0 out of 12
Pollen .10 out of 12
Air Quality Not available.
Flu Activity Not available.
METAR KALB 010751Z 01008KT 10SM SCT055 BKN085 06/M01 A2995 RMK AO2 SLP142 T00561006

More Conditions Fewer Conditions

10-Day Weather Forecast

Almanac

Astronomy

Nov. 01, 2014 Rise Set
Actual Time
Civil Twilight
Nautical Twilight
Astronomical Twilight
Moon
Length of Visible Light
Length of Day
Tomorrow will be .
, % of the Moon is Illuminated

Today's Extremes

State Highs State Lows

Community

WunderPhotos

Upload Photos

1,766,866 photos uploaded!

WunderBlogs® & News

Nearby

Air Quality

  Air Quality AQ Index Pollutant
Not available.

Snow Depth

Station Depth Elevation

Earthquake Activity

City Distance Mag. Time & Date
Minimum magnitude displayed is 2.5.

Coastal Water Temperatures

Place Temperature

Nearby Weather Stations